createdAt,value
2018-08-16T00:00:32.020Z,31.13
2018-08-16T00:01:37.537Z,29.80
2018-08-16T00:02:43.110Z,27.50
2018-08-16T00:03:48.623Z,29.97
2018-08-16T00:04:54.060Z,33.97
2018-08-16T00:05:59.614Z,26.20
2018-08-16T00:07:05.265Z,31.50
2018-08-16T00:08:10.745Z,25.47
2018-08-16T00:09:16.293Z,29.60
2018-08-16T00:10:21.836Z,28.80
2018-08-16T00:11:27.301Z,27.47
2018-08-16T00:12:32.792Z,26.33
2018-08-16T00:13:38.355Z,27.83
2018-08-16T00:14:43.879Z,31.50
2018-08-16T00:15:49.408Z,28.57
2018-08-16T00:16:54.870Z,32.03
2018-08-16T00:18:00.300Z,28.00
2018-08-16T00:19:06.284Z,28.93
2018-08-16T00:20:12.436Z,32.30
2018-08-16T00:21:17.949Z,28.37
2018-08-16T00:22:23.453Z,27.93
2018-08-16T00:23:28.926Z,27.10
2018-08-16T00:24:34.430Z,28.63
2018-08-16T00:25:39.949Z,25.90
2018-08-16T00:26:45.558Z,26.30
2018-08-16T00:27:51.018Z,25.70
2018-08-16T00:28:56.457Z,28.40
2018-08-16T00:30:01.925Z,27.43
2018-08-16T00:31:07.388Z,27.07
2018-08-16T00:32:12.897Z,26.00
2018-08-16T00:33:18.501Z,27.97
2018-08-16T00:34:24.494Z,33.63
2018-08-16T00:35:29.966Z,27.07
2018-08-16T00:36:35.400Z,25.03
2018-08-16T00:37:41.763Z,26.63
2018-08-16T00:38:47.242Z,22.67
2018-08-16T00:39:52.757Z,27.53
2018-08-16T00:40:58.358Z,27.10
2018-08-16T00:42:03.851Z,25.17
2018-08-16T00:43:09.378Z,24.10
2018-08-16T00:44:14.953Z,28.63
2018-08-16T00:45:20.386Z,38.60
2018-08-16T00:46:25.825Z,29.83
2018-08-16T00:47:31.870Z,27.63
2018-08-16T00:48:37.323Z,29.90
2018-08-16T00:49:42.898Z,25.20
2018-08-16T00:50:48.368Z,33.97
2018-08-16T00:51:53.865Z,30.17
2018-08-16T00:52:59.337Z,26.10
2018-08-16T00:54:05.062Z,29.03
2018-08-16T00:55:11.957Z,29.60
2018-08-16T00:56:17.510Z,22.50
2018-08-16T00:57:22.960Z,25.90
2018-08-16T00:58:28.385Z,30.87
2018-08-16T00:59:33.827Z,26.87
2018-08-16T01:00:39.350Z,28.80
2018-08-16T01:01:44.810Z,27.60
2018-08-16T01:02:50.296Z,30.77
2018-08-16T01:03:55.849Z,30.33
2018-08-16T01:05:01.324Z,27.80
2018-08-16T01:06:06.805Z,28.10
2018-08-16T01:07:12.362Z,27.17
2018-08-16T01:08:17.845Z,28.20
2018-08-16T01:09:23.301Z,27.33
2018-08-16T01:10:28.753Z,31.37
2018-08-16T01:11:34.192Z,34.00
2018-08-16T01:12:39.741Z,32.33
2018-08-16T01:13:45.194Z,29.90
2018-08-16T01:14:50.712Z,30.27
2018-08-16T01:15:56.220Z,27.10
2018-08-16T01:17:01.727Z,32.23
2018-08-16T01:18:07.199Z,32.80
2018-08-16T01:19:12.741Z,35.07
2018-08-16T01:20:18.280Z,42.77
2018-08-16T01:21:23.817Z,34.93
2018-08-16T01:22:29.685Z,29.60
2018-08-16T01:23:35.175Z,37.73
2018-08-16T01:24:40.744Z,31.57
2018-08-16T01:25:46.235Z,38.63
2018-08-16T01:26:51.692Z,33.63
2018-08-16T01:27:57.233Z,34.10
2018-08-16T01:29:02.771Z,32.40
2018-08-16T01:30:09.913Z,37.23
2018-08-16T01:31:15.441Z,33.53
2018-08-16T01:32:20.903Z,34.03
2018-08-16T01:33:26.410Z,38.43
2018-08-16T01:34:32.116Z,34.60
2018-08-16T01:35:37.645Z,36.83
2018-08-16T01:36:43.132Z,33.93
2018-08-16T01:37:48.608Z,44.50
2018-08-16T01:38:54.070Z,34.33
2018-08-16T01:39:59.495Z,32.47
2018-08-16T01:41:04.974Z,40.10
2018-08-16T01:42:10.571Z,33.00
2018-08-16T01:43:16.049Z,31.50
2018-08-16T01:44:21.556Z,38.17
2018-08-16T01:45:27.046Z,32.03
2018-08-16T01:46:32.522Z,30.57
2018-08-16T01:47:37.955Z,32.60
2018-08-16T01:48:43.388Z,38.57
2018-08-16T01:49:48.929Z,45.57
2018-08-16T01:50:54.769Z,32.57
2018-08-16T01:52:00.548Z,40.00
2018-08-16T01:53:06.029Z,38.10
2018-08-16T01:54:11.496Z,38.30
2018-08-16T01:55:17.287Z,35.70
2018-08-16T01:56:22.696Z,36.43
2018-08-16T01:57:28.161Z,37.20
2018-08-16T01:58:33.645Z,41.10
2018-08-16T01:59:39.132Z,38.07
2018-08-16T02:00:44.686Z,35.00
2018-08-16T02:01:50.461Z,34.77
2018-08-16T02:02:56.003Z,33.30
2018-08-16T02:04:01.428Z,32.90
2018-08-16T02:05:07.899Z,32.43
2018-08-16T02:06:13.461Z,34.00
2018-08-16T02:07:18.965Z,29.97
2018-08-16T02:08:24.437Z,35.87
2018-08-16T02:09:29.865Z,33.10
2018-08-16T02:10:35.379Z,30.40
2018-08-16T02:11:40.867Z,49.20
2018-08-16T02:12:47.059Z,36.30
2018-08-16T02:13:52.517Z,35.90
2018-08-16T02:14:58.273Z,33.80
2018-08-16T02:16:03.747Z,32.87
2018-08-16T02:17:09.226Z,34.10
2018-08-16T02:18:14.745Z,32.03
2018-08-16T02:19:20.464Z,31.90
2018-08-16T02:20:25.985Z,33.83
2018-08-16T02:21:31.882Z,34.60
2018-08-16T02:22:37.377Z,34.20
2018-08-16T02:23:42.883Z,34.33
2018-08-16T02:24:48.318Z,35.53
2018-08-16T02:25:53.862Z,32.13
2018-08-16T02:26:59.460Z,31.37
2018-08-16T02:28:05.073Z,33.20
2018-08-16T02:29:10.760Z,34.23
2018-08-16T02:30:16.291Z,39.00
2018-08-16T02:31:21.747Z,42.07
2018-08-16T02:32:27.410Z,28.40
2018-08-16T02:33:32.882Z,36.73
2018-08-16T02:34:38.399Z,36.60
2018-08-16T02:35:43.893Z,30.10
2018-08-16T02:36:49.329Z,27.23
2018-08-16T02:37:54.821Z,35.23
2018-08-16T02:39:00.253Z,36.30
2018-08-16T02:40:07.578Z,32.50
2018-08-16T02:41:13.101Z,37.00
2018-08-16T02:42:18.570Z,34.27
2018-08-16T02:43:24.397Z,36.10
2018-08-16T02:44:29.845Z,33.17
2018-08-16T02:45:35.268Z,32.17
2018-08-16T02:46:40.844Z,30.73
2018-08-16T02:47:46.324Z,33.27
2018-08-16T02:48:52.107Z,32.43
2018-08-16T02:49:57.528Z,34.43
2018-08-16T02:51:02.961Z,43.40
2018-08-16T02:52:08.429Z,40.80
2018-08-16T02:53:13.869Z,33.87
2018-08-16T02:54:19.289Z,34.63
2018-08-16T02:55:24.768Z,35.63
2018-08-16T02:56:30.280Z,36.77
2018-08-16T02:57:35.775Z,32.63
2018-08-16T02:58:41.303Z,30.97
2018-08-16T02:59:46.761Z,34.30
2018-08-16T03:00:52.220Z,36.70
2018-08-16T03:01:57.864Z,32.33
2018-08-16T03:03:03.286Z,37.83
2018-08-16T03:04:08.775Z,37.10
2018-08-16T03:05:14.372Z,36.03
2018-08-16T03:06:19.909Z,37.07
2018-08-16T03:07:25.390Z,30.73
2018-08-16T03:08:30.856Z,36.57
2018-08-16T03:09:36.269Z,30.43
2018-08-16T03:10:41.870Z,36.23
2018-08-16T03:11:47.379Z,38.17
2018-08-16T03:12:53.209Z,41.73
2018-08-16T03:13:58.656Z,37.40
2018-08-16T03:15:04.414Z,38.17
2018-08-16T03:16:09.912Z,35.13
2018-08-16T03:17:15.450Z,39.83
2018-08-16T03:18:20.962Z,37.27
2018-08-16T03:19:26.395Z,38.97
2018-08-16T03:20:31.833Z,39.03
2018-08-16T03:21:37.309Z,36.73
2018-08-16T03:22:42.852Z,38.37
2018-08-16T03:23:48.321Z,39.33
2018-08-16T03:24:53.814Z,39.47
2018-08-16T03:25:59.238Z,34.67
2018-08-16T03:27:04.773Z,39.07
2018-08-16T03:28:10.229Z,35.47
2018-08-16T03:29:15.746Z,35.40
2018-08-16T03:30:21.205Z,41.70
2018-08-16T03:31:26.631Z,31.23
2018-08-16T03:32:32.118Z,38.53
2018-08-16T03:33:37.540Z,39.17
2018-08-16T03:34:43.154Z,32.70
2018-08-16T03:35:48.646Z,42.00
2018-08-16T03:36:54.071Z,34.80
2018-08-16T03:37:59.691Z,35.63
2018-08-16T03:39:07.274Z,35.83
2018-08-16T03:40:12.841Z,36.80
2018-08-16T03:41:18.329Z,36.53
2018-08-16T03:42:23.854Z,39.60
2018-08-16T03:43:29.289Z,38.10
2018-08-16T03:44:34.676Z,31.73
2018-08-16T03:45:40.138Z,37.83
2018-08-16T03:46:45.605Z,38.97
2018-08-16T03:47:51.005Z,38.20
2018-08-16T03:48:56.432Z,41.73
2018-08-16T03:50:01.885Z,42.63
2018-08-16T03:51:07.841Z,40.07
2018-08-16T03:52:13.321Z,35.53
2018-08-16T03:53:18.780Z,47.67
2018-08-16T03:54:30.877Z,39.63
2018-08-16T03:55:36.350Z,41.77
2018-08-16T03:56:41.845Z,35.80
2018-08-16T03:57:47.511Z,37.57
2018-08-16T03:58:53.003Z,37.70
2018-08-16T03:59:58.523Z,41.20
2018-08-16T04:01:03.977Z,32.00
2018-08-16T04:02:09.493Z,36.80
2018-08-16T04:03:15.006Z,38.97
2018-08-16T04:04:20.449Z,34.70
2018-08-16T04:05:25.964Z,45.90
2018-08-16T04:06:31.421Z,39.07
2018-08-16T04:07:36.919Z,40.63
2018-08-16T04:08:42.468Z,34.73
2018-08-16T04:09:47.889Z,40.83
2018-08-16T04:10:53.382Z,41.70
2018-08-16T04:11:58.859Z,36.87
2018-08-16T04:13:04.352Z,38.17
2018-08-16T04:14:09.860Z,34.53
2018-08-16T04:15:15.320Z,38.60
2018-08-16T04:16:20.749Z,39.10
2018-08-16T04:17:30.777Z,39.00
2018-08-16T04:18:36.308Z,34.30
2018-08-16T04:19:41.733Z,39.97
2018-08-16T04:20:47.194Z,36.10
2018-08-16T04:21:52.682Z,38.00
2018-08-16T04:22:58.087Z,40.63
2018-08-16T04:24:03.633Z,44.40
2018-08-16T04:25:09.092Z,38.03
2018-08-16T04:26:14.584Z,40.87
2018-08-16T04:27:20.041Z,33.13
2018-08-16T04:28:25.478Z,34.67
2018-08-16T04:29:30.919Z,41.77
2018-08-16T04:30:36.377Z,47.17
2018-08-16T04:31:42.034Z,44.87
2018-08-16T04:32:47.536Z,39.87
2018-08-16T04:33:53.116Z,35.50
2018-08-16T04:34:58.970Z,35.90
2018-08-16T04:36:04.667Z,37.13
2018-08-16T04:37:10.146Z,40.60
2018-08-16T04:38:16.065Z,37.43
2018-08-16T04:39:21.724Z,36.37
2018-08-16T04:40:27.221Z,34.60
2018-08-16T04:41:32.647Z,40.17
2018-08-16T04:42:38.105Z,32.97
2018-08-16T04:43:43.663Z,39.40
2018-08-16T04:44:49.139Z,36.07
2018-08-16T04:45:54.588Z,39.93
2018-08-16T04:47:00.116Z,38.53
2018-08-16T04:48:06.255Z,37.20
2018-08-16T04:49:11.788Z,37.53
2018-08-16T04:50:17.284Z,35.40
2018-08-16T04:51:22.796Z,34.70
2018-08-16T04:52:28.230Z,37.00
2018-08-16T04:53:33.653Z,34.67
2018-08-16T04:54:39.145Z,35.47
2018-08-16T04:55:44.662Z,35.20
2018-08-16T04:56:50.230Z,41.67
2018-08-16T04:57:55.700Z,33.33
2018-08-16T04:59:01.151Z,30.00
2018-08-16T05:00:09.337Z,40.27
2018-08-16T05:01:14.800Z,35.73
2018-08-16T05:02:20.370Z,32.00
2018-08-16T05:03:25.872Z,40.83
2018-08-16T05:04:31.386Z,42.30
2018-08-16T05:05:36.857Z,36.17
2018-08-16T05:06:42.308Z,35.43
2018-08-16T05:07:47.840Z,32.97
2018-08-16T05:08:53.288Z,31.60
2018-08-16T05:09:58.740Z,35.97
2018-08-16T05:11:04.286Z,30.73
2018-08-16T05:12:09.739Z,34.77
2018-08-16T05:13:15.237Z,30.20
2018-08-16T05:14:20.711Z,36.17
2018-08-16T05:15:26.200Z,31.43
2018-08-16T05:16:31.678Z,30.10
2018-08-16T05:17:37.503Z,34.80
2018-08-16T05:18:43.012Z,29.30
2018-08-16T05:19:48.429Z,31.80
2018-08-16T05:20:53.852Z,32.30
2018-08-16T05:21:59.280Z,37.47
2018-08-16T05:23:04.906Z,44.33
2018-08-16T05:24:10.373Z,31.07
2018-08-16T05:25:15.950Z,31.30
2018-08-16T05:26:21.378Z,30.07
2018-08-16T05:27:26.790Z,33.77
2018-08-16T05:28:32.281Z,34.87
2018-08-16T05:29:37.745Z,33.70
2018-08-16T05:30:43.270Z,36.87
2018-08-16T05:31:48.749Z,31.87
2018-08-16T05:32:54.149Z,31.40
2018-08-16T05:33:59.673Z,32.13
2018-08-16T05:35:05.801Z,29.33
2018-08-16T05:36:12.322Z,33.73
2018-08-16T05:37:18.236Z,33.73
2018-08-16T05:38:23.682Z,24.13
2018-08-16T05:39:29.102Z,34.07
2018-08-16T05:40:34.577Z,34.57
2018-08-16T05:41:40.073Z,27.70
2018-08-16T05:42:45.536Z,32.93
2018-08-16T05:43:50.968Z,29.27
2018-08-16T05:44:56.382Z,27.63
2018-08-16T05:46:01.929Z,25.83
2018-08-16T05:47:07.679Z,31.67
2018-08-16T05:48:13.161Z,28.63
2018-08-16T05:49:18.628Z,34.70
2018-08-16T05:50:24.069Z,24.97
2018-08-16T05:51:29.638Z,28.23
2018-08-16T05:52:35.053Z,26.90
2018-08-16T05:53:40.473Z,22.80
2018-08-16T05:54:45.998Z,30.07
2018-08-16T05:55:51.489Z,27.00
2018-08-16T05:56:56.917Z,27.30
2018-08-16T05:58:02.397Z,28.47
2018-08-16T05:59:07.876Z,26.90
2018-08-16T06:00:14.634Z,30.67
2018-08-16T06:01:20.101Z,23.67
2018-08-16T06:02:25.815Z,27.17
2018-08-16T06:03:31.742Z,25.00
2018-08-16T06:04:37.201Z,28.83
2018-08-16T06:05:42.774Z,29.43
2018-08-16T06:06:48.276Z,32.33
2018-08-16T06:07:53.770Z,40.73
2018-08-16T06:08:59.229Z,33.07
2018-08-16T06:10:05.337Z,30.70
2018-08-16T06:11:11.236Z,30.30
2018-08-16T06:12:16.753Z,30.83
2018-08-16T06:13:22.198Z,28.60
2018-08-16T06:14:27.621Z,26.43
2018-08-16T06:15:33.563Z,30.00
2018-08-16T06:16:39.445Z,29.10
2018-08-16T06:17:44.924Z,23.87
2018-08-16T06:18:50.340Z,21.00
2018-08-16T06:19:56.161Z,21.03
2018-08-16T06:21:01.623Z,30.40
2018-08-16T06:22:07.205Z,26.90
2018-08-16T06:23:12.682Z,25.93
2018-08-16T06:24:18.209Z,22.23
2018-08-16T06:25:23.685Z,22.67
2018-08-16T06:26:29.157Z,19.83
2018-08-16T06:27:34.727Z,23.10
2018-08-16T06:28:40.193Z,21.13
2018-08-16T06:29:45.997Z,23.60
2018-08-16T06:30:51.507Z,25.00
2018-08-16T06:31:56.948Z,22.27
2018-08-16T06:33:02.436Z,26.63
2018-08-16T06:34:07.965Z,25.47
2018-08-16T06:35:13.557Z,22.23
2018-08-16T06:36:19.081Z,26.50
2018-08-16T06:37:24.511Z,17.90
2018-08-16T06:38:29.970Z,20.73
2018-08-16T06:39:35.419Z,24.10
2018-08-16T06:40:41.024Z,20.10
2018-08-16T06:41:46.481Z,19.17
2018-08-16T06:42:51.940Z,22.80
2018-08-16T06:43:57.404Z,19.80
2018-08-16T06:45:02.869Z,17.87
2018-08-16T06:46:08.606Z,18.47
2018-08-16T06:47:17.209Z,17.17
2018-08-16T06:48:22.918Z,19.83
2018-08-16T06:49:28.394Z,19.10
2018-08-16T06:50:33.848Z,14.33
2018-08-16T06:51:39.381Z,14.87
2018-08-16T06:52:45.003Z,13.43
2018-08-16T06:53:50.716Z,17.03
2018-08-16T06:54:56.222Z,13.20
2018-08-16T06:56:01.775Z,15.27
2018-08-16T06:57:07.236Z,14.63
2018-08-16T06:58:12.772Z,15.33
2018-08-16T06:59:18.273Z,12.83
2018-08-16T07:00:23.714Z,12.13
2018-08-16T07:01:29.256Z,9.80
2018-08-16T07:02:34.699Z,14.97
2018-08-16T07:03:40.184Z,14.17
2018-08-16T07:04:45.667Z,11.90
2018-08-16T07:05:51.106Z,10.23
2018-08-16T07:06:56.622Z,15.23
2018-08-16T07:08:02.062Z,11.77
2018-08-16T07:09:11.561Z,11.07
2018-08-16T07:10:17.161Z,9.57
2018-08-16T07:11:23.760Z,12.77
2018-08-16T07:12:29.913Z,10.03
2018-08-16T07:13:35.955Z,9.80
2018-08-16T07:14:41.538Z,12.43
2018-08-16T07:15:46.974Z,9.33
2018-08-16T07:16:54.584Z,11.20
2018-08-16T07:18:00.066Z,13.53
2018-08-16T07:19:05.584Z,11.13
2018-08-16T07:20:11.412Z,17.70
2018-08-16T07:21:16.903Z,12.73
2018-08-16T07:22:23.369Z,11.00
2018-08-16T07:23:28.780Z,11.70
2018-08-16T07:24:35.336Z,10.40
2018-08-16T07:25:40.834Z,14.30
2018-08-16T07:26:46.269Z,10.30
2018-08-16T07:27:52.157Z,14.27
2018-08-16T07:28:57.601Z,11.13
2018-08-16T07:30:03.439Z,9.30
2018-08-16T07:31:10.170Z,9.80
2018-08-16T07:32:15.682Z,13.87
2018-08-16T07:33:21.166Z,8.03
2018-08-16T07:34:27.033Z,9.67
2018-08-16T07:35:32.565Z,14.73
2018-08-16T07:36:38.047Z,10.30
2018-08-16T07:37:43.906Z,12.80
2018-08-16T07:38:49.449Z,8.47
2018-08-16T07:39:54.897Z,9.23
2018-08-16T07:41:00.372Z,9.50
2018-08-16T07:42:05.865Z,16.10
2018-08-16T07:43:11.346Z,11.80
2018-08-16T07:44:16.856Z,8.33
2018-08-16T07:45:22.307Z,11.33
2018-08-16T07:46:28.190Z,10.63
2018-08-16T07:47:33.619Z,11.20
2018-08-16T07:48:39.745Z,10.00
2018-08-16T07:49:45.327Z,11.60
2018-08-16T07:50:50.778Z,13.83
2018-08-16T07:51:56.292Z,12.50
2018-08-16T07:53:01.753Z,12.90
2018-08-16T07:54:07.841Z,8.53
2018-08-16T07:55:13.317Z,11.20
2018-08-16T07:56:18.782Z,11.93
2018-08-16T07:57:24.237Z,15.20
2018-08-16T07:58:29.806Z,9.93
2018-08-16T07:59:35.476Z,12.60
2018-08-16T08:00:40.957Z,12.60
2018-08-16T08:01:47.098Z,9.87
2018-08-16T08:02:52.536Z,13.70
2018-08-16T08:03:58.078Z,11.70
2018-08-16T08:05:03.535Z,14.30
2018-08-16T08:06:09.206Z,9.43
2018-08-16T08:07:14.682Z,14.57
2018-08-16T08:08:20.170Z,12.57
2018-08-16T08:09:26.140Z,11.03
2018-08-16T08:10:31.588Z,18.23
2018-08-16T08:11:37.449Z,10.27
2018-08-16T08:12:44.705Z,9.10
2018-08-16T08:13:50.222Z,10.27
2018-08-16T08:14:55.676Z,9.63
2018-08-16T08:16:01.185Z,15.37
2018-08-16T08:17:07.440Z,11.17
2018-08-16T08:18:12.933Z,16.93
2018-08-16T08:19:19.033Z,8.43
2018-08-16T08:20:24.497Z,9.87
2018-08-16T08:21:29.972Z,9.40
2018-08-16T08:22:35.553Z,18.80
2018-08-16T08:23:41.753Z,9.17
2018-08-16T08:24:47.186Z,9.30
2018-08-16T08:25:52.640Z,8.80
2018-08-16T08:26:58.137Z,10.03
2018-08-16T08:28:03.592Z,7.57
2018-08-16T08:29:09.293Z,9.60
2018-08-16T08:30:20.698Z,14.93
2018-08-16T08:31:26.517Z,13.27
2018-08-16T08:32:32.014Z,11.23
2018-08-16T08:33:37.452Z,9.73
2018-08-16T08:34:43.117Z,9.30
2018-08-16T08:37:03.246Z,10.83
2018-08-16T08:38:15.506Z,11.83
2018-08-16T08:39:21.782Z,14.37
2018-08-16T08:40:27.277Z,8.40
2018-08-16T08:41:32.920Z,12.23
2018-08-16T08:42:38.387Z,7.53
2018-08-16T08:44:00.705Z,16.20
2018-08-16T08:45:07.385Z,15.00
2018-08-16T08:46:12.894Z,9.67
2018-08-16T08:47:18.417Z,9.83
2018-08-16T08:48:23.918Z,8.03
2018-08-16T08:49:29.334Z,7.00
2018-08-16T08:50:35.735Z,10.20
2018-08-16T08:51:41.215Z,7.73
2018-08-16T08:52:46.661Z,9.80
2018-08-16T08:54:19.461Z,8.70
2018-08-16T08:55:41.661Z,13.27
2018-08-16T08:57:03.762Z,10.90
2018-08-16T08:58:26.165Z,8.70
2018-08-16T08:59:31.702Z,15.20
2018-08-16T09:00:37.377Z,7.87
2018-08-16T09:01:45.693Z,6.40
2018-08-16T09:02:51.200Z,6.57
2018-08-16T09:03:56.950Z,5.90
2018-08-16T09:05:02.432Z,5.97
2018-08-16T09:06:08.320Z,6.50
2018-08-16T09:07:16.830Z,7.60
2018-08-16T09:08:23.329Z,9.43
2018-08-16T09:09:29.178Z,16.13
2018-08-16T09:10:58.665Z,15.60
2018-08-16T09:12:20.981Z,8.67
2018-08-16T09:13:43.602Z,8.63
2018-08-16T09:15:05.767Z,9.63
2018-08-16T09:16:23.481Z,8.20
2018-08-16T09:17:28.941Z,8.20
2018-08-16T09:18:34.383Z,8.93
2018-08-16T09:19:39.937Z,7.03
2018-08-16T09:20:45.418Z,7.10
2018-08-16T09:21:52.702Z,6.60
2018-08-16T09:23:00.211Z,8.27
2018-08-16T09:24:05.802Z,8.03
2018-08-16T09:25:11.250Z,8.50
2018-08-16T09:26:22.041Z,10.47
2018-08-16T09:27:27.860Z,9.07
2018-08-16T09:28:33.277Z,7.50
2018-08-16T09:30:23.848Z,7.53
2018-08-16T09:31:46.467Z,7.33
2018-08-16T09:33:08.739Z,13.23
2018-08-16T09:34:23.898Z,6.00
2018-08-16T09:35:31.461Z,5.93
2018-08-16T09:36:37.012Z,7.07
2018-08-16T09:37:42.529Z,6.67
2018-08-16T09:38:48.091Z,5.80
2018-08-16T09:39:53.691Z,7.13
2018-08-16T09:40:59.115Z,8.63
2018-08-16T09:42:04.583Z,9.00
2018-08-16T09:43:10.036Z,7.83
2018-08-16T09:44:15.432Z,10.70
2018-08-16T09:45:38.168Z,7.17
2018-08-16T09:47:05.398Z,10.30
2018-08-16T09:48:27.409Z,7.40
2018-08-16T09:49:38.982Z,8.40
2018-08-16T09:50:44.446Z,9.93
2018-08-16T09:51:49.944Z,9.90
2018-08-16T09:52:55.384Z,9.43
2018-08-16T09:54:00.838Z,7.50
2018-08-16T09:55:06.733Z,9.40
2018-08-16T09:56:12.720Z,7.07
2018-08-16T09:57:18.541Z,9.50
2018-08-16T09:58:23.965Z,11.70
2018-08-16T09:59:29.517Z,8.90
2018-08-16T10:00:40.070Z,10.03
2018-08-16T10:01:45.743Z,11.07
2018-08-16T10:02:51.256Z,11.80
2018-08-16T10:03:56.769Z,6.93
2018-08-16T10:05:02.186Z,9.03
2018-08-16T10:06:07.597Z,10.03
2018-08-16T10:07:13.662Z,8.37
2018-08-16T10:08:19.057Z,8.47
2018-08-16T10:09:26.523Z,7.03
2018-08-16T10:10:33.449Z,10.33
2018-08-16T10:11:38.976Z,11.67
2018-08-16T10:12:45.403Z,5.50
2018-08-16T10:13:50.851Z,6.30
2018-08-16T10:14:56.296Z,7.20
2018-08-16T10:16:01.679Z,6.60
2018-08-16T10:17:07.192Z,6.43
2018-08-16T10:18:12.681Z,6.57
2018-08-16T10:19:18.409Z,6.07
2018-08-16T10:20:24.036Z,5.20
2018-08-16T10:21:29.503Z,5.30
2018-08-16T10:22:35.042Z,7.07
2018-08-16T10:23:40.437Z,8.20
2018-08-16T10:24:46.686Z,8.70
2018-08-16T10:25:52.482Z,6.33
2018-08-16T10:26:57.953Z,6.93
2018-08-16T10:28:03.398Z,10.03
2018-08-16T10:29:09.630Z,13.27
2018-08-16T10:30:15.115Z,4.70
2018-08-16T10:31:20.949Z,13.53
2018-08-16T10:32:26.452Z,5.00
2018-08-16T10:33:31.989Z,7.80
2018-08-16T10:34:37.398Z,8.77
2018-08-16T10:35:43.183Z,6.03
2018-08-16T10:36:48.769Z,9.50
2018-08-16T10:37:54.204Z,5.73
2018-08-16T10:38:59.817Z,4.30
2018-08-16T10:40:05.458Z,6.40
2018-08-16T10:41:11.205Z,5.83
2018-08-16T10:42:16.714Z,13.13
2018-08-16T10:43:22.173Z,7.77
2018-08-16T10:44:27.634Z,8.80
2018-08-16T10:45:33.417Z,8.80
2018-08-16T10:46:38.945Z,7.17
2018-08-16T10:47:44.461Z,9.00
2018-08-16T10:48:49.904Z,6.53
2018-08-16T10:49:55.336Z,8.37
2018-08-16T10:51:01.959Z,10.27
2018-08-16T10:52:07.608Z,10.00
2018-08-16T10:53:13.182Z,32.93
2018-08-16T10:54:19.688Z,5.93
2018-08-16T10:55:25.111Z,11.83
2018-08-16T10:56:30.622Z,6.77
2018-08-16T10:57:36.066Z,7.70
2018-08-16T10:58:41.692Z,7.73
2018-08-16T10:59:48.341Z,8.10
2018-08-16T11:00:53.962Z,7.20
2018-08-16T11:01:59.402Z,9.50
2018-08-16T11:03:05.142Z,9.53
2018-08-16T11:04:11.568Z,11.20
2018-08-16T11:05:17.282Z,8.67
2018-08-16T11:06:22.844Z,8.33
2018-08-16T11:07:28.357Z,8.20
2018-08-16T11:08:33.796Z,7.70
2018-08-16T11:09:39.205Z,8.60
2018-08-16T11:10:44.645Z,6.40
2018-08-16T11:11:50.161Z,5.77
2018-08-16T11:12:56.062Z,6.07
2018-08-16T11:14:01.566Z,7.80
2018-08-16T11:15:07.591Z,9.13
2018-08-16T11:16:13.045Z,6.67
2018-08-16T11:17:18.497Z,8.23
2018-08-16T11:18:23.888Z,5.90
2018-08-16T11:19:29.306Z,6.53
2018-08-16T11:20:35.174Z,9.27
2018-08-16T11:21:41.068Z,9.63
2018-08-16T11:22:46.591Z,5.93
2018-08-16T11:23:52.042Z,5.80
2018-08-16T11:24:58.288Z,10.73
2018-08-16T11:26:04.298Z,6.80
2018-08-16T11:27:09.729Z,7.37
2018-08-16T11:28:15.189Z,5.90
2018-08-16T11:29:20.703Z,5.73
2018-08-16T11:30:26.181Z,10.70
2018-08-16T11:31:31.573Z,8.63
2018-08-16T11:32:37.092Z,5.77
2018-08-16T11:33:42.752Z,5.97
2018-08-16T11:34:48.288Z,7.87
2018-08-16T11:35:54.262Z,5.80
2018-08-16T11:36:59.656Z,9.37
2018-08-16T11:39:18.345Z,8.70
2018-08-16T11:40:23.757Z,8.07
2018-08-16T11:41:29.464Z,5.13
2018-08-16T11:42:35.102Z,5.17
2018-08-16T11:43:41.034Z,8.20
2018-08-16T11:44:46.556Z,10.10
2018-08-16T11:45:52.026Z,8.70
2018-08-16T11:46:57.539Z,9.37
2018-08-16T11:48:02.972Z,8.27
2018-08-16T11:49:09.233Z,6.63
2018-08-16T11:50:14.818Z,5.67
2018-08-16T11:51:20.253Z,5.60
2018-08-16T11:52:26.008Z,7.10
2018-08-16T11:53:31.445Z,8.30
2018-08-16T11:54:36.870Z,11.20
2018-08-16T11:55:44.610Z,10.47
2018-08-16T11:56:50.236Z,6.10
2018-08-16T11:57:55.721Z,7.83
2018-08-16T11:59:01.229Z,6.60
2018-08-16T12:00:07.291Z,12.07
2018-08-16T12:01:13.628Z,7.80
2018-08-16T12:02:19.333Z,9.30
2018-08-16T12:03:24.789Z,6.93
2018-08-16T12:04:30.778Z,12.13
2018-08-16T12:05:36.200Z,16.03
2018-08-16T12:06:41.780Z,7.80
2018-08-16T12:07:47.238Z,7.77
2018-08-16T12:08:52.736Z,8.00
2018-08-16T12:09:58.272Z,8.10
2018-08-16T12:11:03.757Z,6.93
2018-08-16T12:12:09.273Z,6.63
2018-08-16T12:13:15.441Z,5.80
2018-08-16T12:14:21.131Z,6.73
2018-08-16T12:15:26.593Z,8.83
2018-08-16T12:16:32.021Z,7.83
2018-08-16T12:17:38.182Z,7.30
2018-08-16T12:18:44.200Z,7.93
2018-08-16T12:19:49.666Z,5.43
2018-08-16T12:20:55.105Z,7.40
2018-08-16T12:22:00.604Z,54.53
2018-08-16T12:23:06.128Z,7.47
2018-08-16T12:24:12.210Z,6.53
2018-08-16T12:25:17.748Z,6.97
2018-08-16T12:26:23.160Z,6.13
2018-08-16T12:27:28.632Z,8.10
2018-08-16T12:28:34.056Z,7.83
2018-08-16T12:29:39.898Z,7.20
2018-08-16T12:30:45.454Z,8.17
2018-08-16T12:31:50.858Z,6.70
2018-08-16T12:32:56.278Z,11.10
2018-08-16T12:34:01.679Z,7.40
2018-08-16T12:35:08.980Z,10.77
2018-08-16T12:36:14.565Z,6.73
2018-08-16T12:37:20.117Z,8.90
2018-08-16T12:38:25.594Z,5.73
2018-08-16T12:39:31.088Z,7.20
2018-08-16T12:40:36.531Z,6.97
2018-08-16T12:41:42.029Z,10.13
2018-08-16T12:42:47.521Z,8.27
2018-08-16T12:43:52.970Z,12.10
2018-08-16T12:44:58.669Z,9.63
2018-08-16T12:46:04.391Z,6.77
2018-08-16T12:47:09.845Z,12.20
2018-08-16T12:48:15.334Z,6.70
2018-08-16T12:49:21.053Z,9.40
2018-08-16T12:50:26.531Z,10.87
2018-08-16T12:51:31.952Z,6.37
2018-08-16T12:52:37.491Z,7.50
2018-08-16T12:53:43.990Z,6.63
2018-08-16T12:54:49.594Z,9.17
2018-08-16T12:55:55.102Z,7.73
2018-08-16T12:57:00.580Z,10.70
2018-08-16T12:58:06.184Z,9.37
2018-08-16T12:59:12.064Z,9.83
2018-08-16T13:00:18.923Z,7.90
2018-08-16T13:01:24.412Z,7.13
2018-08-16T13:02:29.897Z,9.13
2018-08-16T13:03:35.911Z,7.83
2018-08-16T13:04:41.525Z,7.17
2018-08-16T13:05:47.957Z,8.27
2018-08-16T13:06:53.582Z,12.70
2018-08-16T13:07:59.138Z,8.97
2018-08-16T13:09:06.917Z,9.23
2018-08-16T13:10:13.174Z,15.60
2018-08-16T13:11:18.914Z,9.77
2018-08-16T13:12:24.346Z,8.73
2018-08-16T13:13:29.789Z,9.10
2018-08-16T13:14:35.317Z,10.87
2018-08-16T13:15:40.885Z,8.33
2018-08-16T13:16:46.392Z,8.27
2018-08-16T13:17:52.026Z,11.60
2018-08-16T13:18:57.439Z,8.93
2018-08-16T13:20:02.949Z,8.57
2018-08-16T13:21:09.003Z,9.20
2018-08-16T13:22:14.696Z,8.43
2018-08-16T13:23:20.257Z,9.63
2018-08-16T13:24:25.672Z,10.27
2018-08-16T13:25:31.157Z,9.80
2018-08-16T13:26:36.668Z,8.33
2018-08-16T13:27:42.369Z,6.93
2018-08-16T13:28:47.841Z,12.63
2018-08-16T13:29:53.266Z,7.67
2018-08-16T13:30:58.714Z,8.47
2018-08-16T13:32:04.150Z,9.00
2018-08-16T13:33:09.812Z,10.63
2018-08-16T13:34:15.913Z,8.23
2018-08-16T13:35:21.353Z,8.60
2018-08-16T13:36:26.866Z,9.87
2018-08-16T13:37:32.314Z,8.30
2018-08-16T13:38:39.271Z,10.60
2018-08-16T13:39:44.828Z,12.10
2018-08-16T13:40:50.308Z,8.83
2018-08-16T13:41:55.753Z,9.23
2018-08-16T13:43:01.260Z,10.13
2018-08-16T13:44:06.723Z,10.17
2018-08-16T13:45:12.271Z,7.50
2018-08-16T13:46:17.830Z,9.77
2018-08-16T13:47:23.265Z,9.53
2018-08-16T13:48:29.576Z,14.73
2018-08-16T13:49:34.987Z,11.17
2018-08-16T13:50:40.529Z,10.93
2018-08-16T13:51:46.476Z,14.53
2018-08-16T13:52:51.909Z,9.67
2018-08-16T13:53:58.981Z,13.17
2018-08-16T13:55:04.562Z,8.50
2018-08-16T13:56:10.013Z,12.83
2018-08-16T13:57:15.476Z,10.20
2018-08-16T13:58:20.992Z,8.13
2018-08-16T13:59:26.418Z,10.03
2018-08-16T14:00:32.627Z,8.30
2018-08-16T14:01:38.575Z,9.60
2018-08-16T14:02:44.094Z,8.60
2018-08-16T14:03:49.561Z,8.20
2018-08-16T14:04:56.296Z,7.60
2018-08-16T14:06:01.733Z,9.10
2018-08-16T14:07:07.217Z,10.00
2018-08-16T14:08:12.822Z,12.03
2018-08-16T14:09:18.343Z,14.63
2018-08-16T14:10:23.824Z,9.13
2018-08-16T14:11:29.253Z,10.53
2018-08-16T14:12:34.753Z,11.57
2018-08-16T14:13:40.206Z,8.00
2018-08-16T14:14:46.046Z,8.73
2018-08-16T14:15:53.678Z,10.90
2018-08-16T14:16:59.128Z,11.50
2018-08-16T14:18:04.574Z,9.60
2018-08-16T14:19:10.114Z,9.40
2018-08-16T14:20:15.734Z,10.03
2018-08-16T14:21:22.597Z,8.37
2018-08-16T14:22:29.006Z,8.10
2018-08-16T14:23:34.505Z,9.33